Terminal Aerodrome Forecast
Issued by NWS Blacksburg, VA

Current Version | Previous Version | Graphics & Text | Print | Product List | Glossary On
Versions: 1 2 3 4 5 6 7 8 9 10 11 12 13 14 15 16 17 18 19 20 21 22 23 24 25 26
000
FTUS41 KRNK 300715 AAA
TAFBLF
TAF AMD
KBLF 300715Z 3007/0106 VRB04KT P6SM OVC090
      TEMPO 3007/3008 4SM BR OVC035
     FM300900 11004KT 6SM BR VCSH OVC009
     FM301200 12005KT P6SM OVC009
     FM301500 14008KT P6SM BKN030
     FM302100 24005KT P6SM SCT020 BKN040=

USA.gov is the U.S. government's official web portal to all federal, state and local government web resources and services.